sensor_id;sensor_type;location;lat;lon;timestamp;pressure;altitude;pressure_sealevel;temperature;humidity
5703;BME280;2876;51.738;10.050;2023-02-16T00:00:24;100199.09;;;0.72;100.00
5703;BME280;2876;51.738;10.050;2023-02-16T00:06:28;100201.72;;;0.72;100.00
5703;BME280;2876;51.738;10.050;2023-02-16T00:12:30;100194.09;;;0.80;100.00
5703;BME280;2876;51.738;10.050;2023-02-16T00:18:52;100193.13;;;0.81;100.00
5703;BME280;2876;51.738;10.050;2023-02-16T00:24:54;100195.31;;;0.87;100.00
5703;BME280;2876;51.738;10.050;2023-02-16T00:30:56;100189.00;;;1.01;100.00
5703;BME280;2876;51.738;10.050;2023-02-16T00:37:08;100182.75;;;0.67;100.00
5703;BME280;2876;51.738;10.050;2023-02-16T00:43:27;100178.31;;;0.67;100.00
5703;BME280;2876;51.738;10.050;2023-02-16T00:49:29;100176.66;;;0.66;100.00
5703;BME280;2876;51.738;10.050;2023-02-16T00:55:34;100171.94;;;0.59;100.00
5703;BME280;2876;51.738;10.050;2023-02-16T01:01:37;100176.84;;;0.52;100.00
5703;BME280;2876;51.738;10.050;2023-02-16T01:07:39;100182.28;;;0.62;100.00
5703;BME280;2876;51.738;10.050;2023-02-16T01:14:00;100164.34;;;0.54;100.00
5703;BME280;2876;51.738;10.050;2023-02-16T01:20:03;100166.22;;;0.65;100.00
5703;BME280;2876;51.738;10.050;2023-02-16T01:26:10;100152.59;;;0.82;100.00
5703;BME280;2876;51.738;10.050;2023-02-16T01:32:13;100164.19;;;0.80;100.00
5703;BME280;2876;51.738;10.050;2023-02-16T01:38:26;100156.63;;;0.75;100.00
5703;BME280;2876;51.738;10.050;2023-02-16T01:50:47;100156.28;;;0.80;100.00
5703;BME280;2876;51.738;10.050;2023-02-16T01:57:38;100140.56;;;0.78;100.00
5703;BME280;2876;51.738;10.050;2023-02-16T02:03:42;100122.03;;;0.56;100.00
5703;BME280;2876;51.738;10.050;2023-02-16T02:16:58;100112.78;;;0.50;100.00
5703;BME280;2876;51.738;10.050;2023-02-16T02:48:31;100124.44;;;0.59;100.00
5703;BME280;2876;51.738;10.050;2023-02-16T02:54:39;100124.00;;;0.76;100.00
5703;BME280;2876;51.738;10.050;2023-02-16T03:01:00;100120.03;;;0.82;100.00
5703;BME280;2876;51.738;10.050;2023-02-16T03:07:04;100114.44;;;0.97;100.00
5703;BME280;2876;51.738;10.050;2023-02-16T03:13:20;100113.22;;;1.13;100.00
5703;BME280;2876;51.738;10.050;2023-02-16T03:19:23;100107.56;;;1.40;100.00
5703;BME280;2876;51.738;10.050;2023-02-16T03:25:43;100111.56;;;1.45;100.00
5703;BME280;2876;51.738;10.050;2023-02-16T03:32:05;100107.94;;;1.46;100.00
5703;BME280;2876;51.738;10.050;2023-02-16T03:38:07;100101.31;;;1.52;100.00
5703;BME280;2876;51.738;10.050;2023-02-16T03:44:09;100099.66;;;1.51;100.00
5703;BME280;2876;51.738;10.050;2023-02-16T03:50:12;100103.09;;;1.74;100.00
5703;BME280;2876;51.738;10.050;2023-02-16T03:56:14;100098.56;;;1.42;100.00
5703;BME280;2876;51.738;10.050;2023-02-16T04:02:16;100098.94;;;1.26;100.00
5703;BME280;2876;51.738;10.050;2023-02-16T04:08:18;100095.34;;;1.27;100.00
5703;BME280;2876;51.738;10.050;2023-02-16T04:14:20;100125.00;;;1.09;100.00
5703;BME280;2876;51.738;10.050;2023-02-16T04:20:27;100118.50;;;0.90;100.00
5703;BME280;2876;51.738;10.050;2023-02-16T04:26:29;100109.72;;;0.79;100.00
5703;BME280;2876;51.738;10.050;2023-02-16T04:32:31;100111.75;;;0.64;100.00
5703;BME280;2876;51.738;10.050;2023-02-16T04:38:33;100110.16;;;0.61;100.00
5703;BME280;2876;51.738;10.050;2023-02-16T04:44:35;100116.84;;;0.54;100.00
5703;BME280;2876;51.738;10.050;2023-02-16T04:50:37;100113.97;;;0.46;100.00
5703;BME280;2876;51.738;10.050;2023-02-16T04:56:39;100097.19;;;0.47;100.00
5703;BME280;2876;51.738;10.050;2023-02-16T05:02:41;100094.00;;;0.19;100.00
5703;BME280;2876;51.738;10.050;2023-02-16T05:08:44;100090.50;;;-0.05;100.00
5703;BME280;2876;51.738;10.050;2023-02-16T05:14:46;100106.06;;;-0.13;100.00
5703;BME280;2876;51.738;10.050;2023-02-16T05:20:48;100118.50;;;-0.15;100.00
5703;BME280;2876;51.738;10.050;2023-02-16T05:27:19;100118.28;;;-0.12;100.00
5703;BME280;2876;51.738;10.050;2023-02-16T05:33:22;100102.91;;;-0.18;100.00
5703;BME280;2876;51.738;10.050;2023-02-16T05:39:24;100092.16;;;-0.15;100.00
5703;BME280;2876;51.738;10.050;2023-02-16T05:45:26;100088.22;;;-0.10;100.00
5703;BME280;2876;51.738;10.050;2023-02-16T05:51:28;100083.03;;;-0.22;100.00
5703;BME280;2876;51.738;10.050;2023-02-16T05:57:31;100078.75;;;-0.36;100.00
5703;BME280;2876;51.738;10.050;2023-02-16T06:03:35;100090.16;;;-0.48;100.00
5703;BME280;2876;51.738;10.050;2023-02-16T06:09:37;100098.06;;;-0.48;100.00
5703;BME280;2876;51.738;10.050;2023-02-16T06:15:39;100114.28;;;-0.55;100.00
5703;BME280;2876;51.738;10.050;2023-02-16T06:21:41;100122.97;;;-0.65;100.00
5703;BME280;2876;51.738;10.050;2023-02-16T06:27:43;100109.09;;;-0.67;100.00
5703;BME280;2876;51.738;10.050;2023-02-16T06:33:45;100121.81;;;-0.61;100.00
5703;BME280;2876;51.738;10.050;2023-02-16T06:39:48;100113.97;;;-0.50;100.00
5703;BME280;2876;51.738;10.050;2023-02-16T06:45:50;100116.16;;;-0.31;100.00
5703;BME280;2876;51.738;10.050;2023-02-16T06:51:52;100107.34;;;-0.19;100.00
5703;BME280;2876;51.738;10.050;2023-02-16T06:57:54;100111.88;;;0.03;100.00
5703;BME280;2876;51.738;10.050;2023-02-16T07:03:56;100115.44;;;0.26;100.00
5703;BME280;2876;51.738;10.050;2023-02-16T07:09:58;100128.09;;;0.45;100.00
5703;BME280;2876;51.738;10.050;2023-02-16T07:16:00;100126.13;;;0.60;100.00
5703;BME280;2876;51.738;10.050;2023-02-16T07:22:03;100126.66;;;0.87;100.00
5703;BME280;2876;51.738;10.050;2023-02-16T07:28:06;100131.25;;;0.96;100.00
5703;BME280;2876;51.738;10.050;2023-02-16T07:34:08;100128.84;;;1.16;100.00
5703;BME280;2876;51.738;10.050;2023-02-16T07:40:10;100123.66;;;1.48;100.00
5703;BME280;2876;51.738;10.050;2023-02-16T07:46:12;100115.97;;;1.56;100.00
5703;BME280;2876;51.738;10.050;2023-02-16T07:52:15;100114.34;;;1.87;99.73
5703;BME280;2876;51.738;10.050;2023-02-16T07:58:17;100118.31;;;1.93;99.72
5703;BME280;2876;51.738;10.050;2023-02-16T08:04:28;100124.47;;;1.82;99.69
5703;BME280;2876;51.738;10.050;2023-02-16T08:10:30;100141.63;;;1.88;99.74
5703;BME280;2876;51.738;10.050;2023-02-16T08:16:32;100149.75;;;2.07;99.03
5703;BME280;2876;51.738;10.050;2023-02-16T08:22:35;100150.00;;;2.36;98.28
5703;BME280;2876;51.738;10.050;2023-02-16T08:28:37;100144.59;;;2.59;98.65
5703;BME280;2876;51.738;10.050;2023-02-16T08:34:46;100134.28;;;2.76;97.91
5703;BME280;2876;51.738;10.050;2023-02-16T08:40:49;100132.59;;;2.96;97.96
5703;BME280;2876;51.738;10.050;2023-02-16T08:46:54;100127.22;;;3.08;96.94
5703;BME280;2876;51.738;10.050;2023-02-16T08:52:56;100126.31;;;3.18;96.83
5703;BME280;2876;51.738;10.050;2023-02-16T08:59:00;100128.28;;;3.26;95.26
5703;BME280;2876;51.738;10.050;2023-02-16T09:05:02;100131.16;;;3.44;94.86
5703;BME280;2876;51.738;10.050;2023-02-16T09:11:12;100136.41;;;3.65;94.76
5703;BME280;2876;51.738;10.050;2023-02-16T09:17:14;100143.75;;;4.21;93.11
5703;BME280;2876;51.738;10.050;2023-02-16T09:23:17;100151.34;;;4.54;89.97
5703;BME280;2876;51.738;10.050;2023-02-16T09:29:21;100142.78;;;4.51;88.93
5703;BME280;2876;51.738;10.050;2023-02-16T09:35:23;100138.59;;;4.39;90.08
5703;BME280;2876;51.738;10.050;2023-02-16T09:48:39;100126.91;;;4.98;87.77
5703;BME280;2876;51.738;10.050;2023-02-16T09:54:55;100110.47;;;5.49;87.34
5703;BME280;2876;51.738;10.050;2023-02-16T10:01:41;100113.06;;;5.96;83.81
5703;BME280;2876;51.738;10.050;2023-02-16T10:08:02;100109.97;;;6.54;82.76
5703;BME280;2876;51.738;10.050;2023-02-16T10:20:36;100127.72;;;7.50;76.63
5703;BME280;2876;51.738;10.050;2023-02-16T10:26:54;100124.53;;;7.46;77.52
5703;BME280;2876;51.738;10.050;2023-02-16T10:33:26;100113.81;;;7.80;76.93
5703;BME280;2876;51.738;10.050;2023-02-16T10:45:55;100106.91;;;9.02;71.68
5703;BME280;2876;51.738;10.050;2023-02-16T10:52:01;100110.47;;;8.86;70.78
5703;BME280;2876;51.738;10.050;2023-02-16T10:58:04;100106.94;;;8.85;71.11
5703;BME280;2876;51.738;10.050;2023-02-16T11:10:51;100078.06;;;9.28;70.81
5703;BME280;2876;51.738;10.050;2023-02-16T11:17:12;100073.25;;;9.24;71.69
5703;BME280;2876;51.738;10.050;2023-02-16T11:29:32;100060.31;;;10.66;67.60
5703;BME280;2876;51.738;10.050;2023-02-16T11:35:41;100056.53;;;10.76;67.91
5703;BME280;2876;51.738;10.050;2023-02-16T11:41:57;100059.94;;;10.70;67.07
5703;BME280;2876;51.738;10.050;2023-02-16T11:48:06;100050.81;;;10.41;67.24
5703;BME280;2876;51.738;10.050;2023-02-16T11:54:16;100061.94;;;10.53;67.93
5703;BME280;2876;51.738;10.050;2023-02-16T12:00:21;100047.59;;;11.13;66.53
5703;BME280;2876;51.738;10.050;2023-02-16T12:19:44;100011.88;;;11.63;62.33
5703;BME280;2876;51.738;10.050;2023-02-16T12:39:28;100001.50;;;11.60;61.66
5703;BME280;2876;51.738;10.050;2023-02-16T12:45:36;99994.50;;;11.30;61.41
5703;BME280;2876;51.738;10.050;2023-02-16T12:52:16;99993.16;;;10.89;59.49
5703;BME280;2876;51.738;10.050;2023-02-16T12:58:29;99975.06;;;10.24;63.76
5703;BME280;2876;51.738;10.050;2023-02-16T13:05:13;99990.59;;;10.06;64.72
5703;BME280;2876;51.738;10.050;2023-02-16T13:11:32;99992.47;;;10.58;62.56
5703;BME280;2876;51.738;10.050;2023-02-16T13:18:20;99978.09;;;10.74;63.03
5703;BME280;2876;51.738;10.050;2023-02-16T13:37:44;99958.88;;;11.21;63.90
5703;BME280;2876;51.738;10.050;2023-02-16T13:44:01;99947.53;;;11.04;64.92
5703;BME280;2876;51.738;10.050;2023-02-16T14:02:55;99951.28;;;9.98;68.42
5703;BME280;2876;51.738;10.050;2023-02-16T14:15:18;99942.84;;;9.40;70.57
5703;BME280;2876;51.738;10.050;2023-02-16T14:21:43;99932.38;;;9.54;70.32
5703;BME280;2876;51.738;10.050;2023-02-16T14:27:57;99916.47;;;9.52;69.80
5703;BME280;2876;51.738;10.050;2023-02-16T14:34:23;99913.16;;;9.73;69.79
5703;BME280;2876;51.738;10.050;2023-02-16T14:47:11;99901.00;;;9.39;72.17
5703;BME280;2876;51.738;10.050;2023-02-16T15:00:32;99883.94;;;9.40;74.10
5703;BME280;2876;51.738;10.050;2023-02-16T15:06:43;99892.19;;;9.31;75.18
5703;BME280;2876;51.738;10.050;2023-02-16T15:12:47;99881.63;;;9.37;75.26
5703;BME280;2876;51.738;10.050;2023-02-16T15:18:54;99898.16;;;9.41;74.08
5703;BME280;2876;51.738;10.050;2023-02-16T15:25:24;99901.41;;;9.28;73.44
5703;BME280;2876;51.738;10.050;2023-02-16T15:31:36;99880.03;;;8.97;75.92
5703;BME280;2876;51.738;10.050;2023-02-16T15:37:39;99890.06;;;8.95;77.06
5703;BME280;2876;51.738;10.050;2023-02-16T15:43:47;99889.16;;;8.72;77.70
5703;BME280;2876;51.738;10.050;2023-02-16T15:49:50;99893.72;;;8.63;78.11
5703;BME280;2876;51.738;10.050;2023-02-16T15:55:52;99871.19;;;8.49;78.45
5703;BME280;2876;51.738;10.050;2023-02-16T16:02:02;99865.72;;;8.43;79.27
5703;BME280;2876;51.738;10.050;2023-02-16T16:08:13;99860.25;;;8.11;81.37
5703;BME280;2876;51.738;10.050;2023-02-16T16:14:15;99857.25;;;8.06;82.70
5703;BME280;2876;51.738;10.050;2023-02-16T16:20:35;99842.94;;;7.91;83.50
5703;BME280;2876;51.738;10.050;2023-02-16T16:26:53;99854.47;;;7.67;86.21
5703;BME280;2876;51.738;10.050;2023-02-16T16:33:09;99868.69;;;7.59;85.53
5703;BME280;2876;51.738;10.050;2023-02-16T16:57:31;99879.59;;;7.07;91.01
5703;BME280;2876;51.738;10.050;2023-02-16T17:03:34;99887.81;;;7.14;91.02
5703;BME280;2876;51.738;10.050;2023-02-16T17:09:35;99886.16;;;7.29;90.70
5703;BME280;2876;51.738;10.050;2023-02-16T17:15:44;99893.97;;;7.31;90.54
5703;BME280;2876;51.738;10.050;2023-02-16T17:21:48;99897.69;;;7.46;90.06
5703;BME280;2876;51.738;10.050;2023-02-16T17:27:50;99900.66;;;7.35;90.75
5703;BME280;2876;51.738;10.050;2023-02-16T17:33:52;99901.66;;;7.34;90.47
5703;BME280;2876;51.738;10.050;2023-02-16T17:39:54;99896.50;;;7.32;90.26
5703;BME280;2876;51.738;10.050;2023-02-16T17:45:56;99894.50;;;7.34;90.31
5703;BME280;2876;51.738;10.050;2023-02-16T17:52:01;99899.00;;;7.34;90.05
5703;BME280;2876;51.738;10.050;2023-02-16T17:58:03;99900.00;;;7.33;90.37
5703;BME280;2876;51.738;10.050;2023-02-16T18:04:05;99902.66;;;7.33;90.47
5703;BME280;2876;51.738;10.050;2023-02-16T18:10:18;99892.84;;;7.33;90.00
5703;BME280;2876;51.738;10.050;2023-02-16T18:16:25;99890.16;;;7.33;89.63
5703;BME280;2876;51.738;10.050;2023-02-16T18:22:28;99886.31;;;7.44;89.37
5703;BME280;2876;51.738;10.050;2023-02-16T18:28:32;99870.16;;;7.37;89.27
5703;BME280;2876;51.738;10.050;2023-02-16T18:34:34;99861.97;;;7.39;89.59
5703;BME280;2876;51.738;10.050;2023-02-16T18:40:41;99846.13;;;7.21;90.79
5703;BME280;2876;51.738;10.050;2023-02-16T18:46:43;99847.66;;;7.32;90.46
5703;BME280;2876;51.738;10.050;2023-02-16T18:52:45;99847.66;;;7.32;90.41
5703;BME280;2876;51.738;10.050;2023-02-16T18:58:47;99855.97;;;7.29;90.99
5703;BME280;2876;51.738;10.050;2023-02-16T19:04:49;99852.66;;;7.27;90.50
5703;BME280;2876;51.738;10.050;2023-02-16T19:10:51;99846.81;;;7.23;91.10
5703;BME280;2876;51.738;10.050;2023-02-16T19:16:53;99842.31;;;7.32;90.98
5703;BME280;2876;51.738;10.050;2023-02-16T19:22:55;99834.63;;;7.29;91.41
5703;BME280;2876;51.738;10.050;2023-02-16T19:28:58;99829.13;;;7.30;90.90
5703;BME280;2876;51.738;10.050;2023-02-16T19:35:00;99828.13;;;7.23;91.45
5703;BME280;2876;51.738;10.050;2023-02-16T19:41:24;99824.47;;;7.24;92.02
5703;BME280;2876;51.738;10.050;2023-02-16T19:47:27;99818.44;;;7.38;91.76
5703;BME280;2876;51.738;10.050;2023-02-16T19:53:29;99812.13;;;7.40;91.54
5703;BME280;2876;51.738;10.050;2023-02-16T19:59:32;99811.59;;;7.44;91.19
5703;BME280;2876;51.738;10.050;2023-02-16T20:05:34;99805.63;;;7.50;91.20
5703;BME280;2876;51.738;10.050;2023-02-16T20:11:39;99806.44;;;7.43;91.40
5703;BME280;2876;51.738;10.050;2023-02-16T20:17:41;99794.25;;;7.48;90.96
5703;BME280;2876;51.738;10.050;2023-02-16T20:23:44;99786.25;;;7.48;90.84
5703;BME280;2876;51.738;10.050;2023-02-16T20:29:46;99786.75;;;7.52;89.88
5703;BME280;2876;51.738;10.050;2023-02-16T20:35:49;99777.03;;;7.75;89.36
5703;BME280;2876;51.738;10.050;2023-02-16T20:41:50;99775.75;;;7.63;90.24
5703;BME280;2876;51.738;10.050;2023-02-16T20:47:52;99769.84;;;7.84;89.71
5703;BME280;2876;51.738;10.050;2023-02-16T20:53:55;99767.84;;;7.86;89.13
5703;BME280;2876;51.738;10.050;2023-02-16T20:59:57;99752.09;;;7.99;89.46
5703;BME280;2876;51.738;10.050;2023-02-16T21:05:59;99754.47;;;7.94;89.17
5703;BME280;2876;51.738;10.050;2023-02-16T21:12:00;99742.44;;;7.98;89.64
5703;BME280;2876;51.738;10.050;2023-02-16T21:18:02;99748.44;;;8.00;89.58
5703;BME280;2876;51.738;10.050;2023-02-16T21:24:05;99735.22;;;8.07;89.56
5703;BME280;2876;51.738;10.050;2023-02-16T21:30:08;99735.31;;;8.22;89.04
5703;BME280;2876;51.738;10.050;2023-02-16T21:36:22;99728.34;;;8.12;89.44
5703;BME280;2876;51.738;10.050;2023-02-16T21:42:24;99739.88;;;8.13;89.83
5703;BME280;2876;51.738;10.050;2023-02-16T21:48:27;99726.13;;;8.63;88.22
5703;BME280;2876;51.738;10.050;2023-02-16T21:54:50;99739.47;;;8.32;89.14
5703;BME280;2876;51.738;10.050;2023-02-16T22:01:12;99731.44;;;8.32;89.37
5703;BME280;2876;51.738;10.050;2023-02-16T22:07:14;99731.28;;;8.26;89.28
5703;BME280;2876;51.738;10.050;2023-02-16T22:13:16;99730.31;;;8.27;89.63
5703;BME280;2876;51.738;10.050;2023-02-16T22:19:18;99719.81;;;8.17;90.00
5703;BME280;2876;51.738;10.050;2023-02-16T22:25:20;99717.28;;;8.24;89.71
5703;BME280;2876;51.738;10.050;2023-02-16T22:31:25;99709.66;;;8.12;90.22
5703;BME280;2876;51.738;10.050;2023-02-16T22:37:28;99698.69;;;8.30;89.97
5703;BME280;2876;51.738;10.050;2023-02-16T22:43:30;99699.28;;;8.49;89.12
5703;BME280;2876;51.738;10.050;2023-02-16T22:49:32;99697.59;;;8.56;88.97
5703;BME280;2876;51.738;10.050;2023-02-16T22:55:34;99698.59;;;8.24;89.97
5703;BME280;2876;51.738;10.050;2023-02-16T23:01:36;99695.22;;;8.22;90.35
5703;BME280;2876;51.738;10.050;2023-02-16T23:07:38;99702.75;;;8.57;89.22
5703;BME280;2876;51.738;10.050;2023-02-16T23:13:40;99698.53;;;8.32;89.49
5703;BME280;2876;51.738;10.050;2023-02-16T23:19:42;99695.69;;;8.64;88.58
5703;BME280;2876;51.738;10.050;2023-02-16T23:25:47;99682.84;;;8.29;89.74
5703;BME280;2876;51.738;10.050;2023-02-16T23:31:50;99685.31;;;8.38;89.26
5703;BME280;2876;51.738;10.050;2023-02-16T23:37:52;99684.31;;;8.39;90.35
5703;BME280;2876;51.738;10.050;2023-02-16T23:43:54;99687.19;;;8.30;90.59
5703;BME280;2876;51.738;10.050;2023-02-16T23:49:57;99682.31;;;8.33;90.90
5703;BME280;2876;51.738;10.050;2023-02-16T23:56:01;99666.34;;;8.25;91.35
